createdAt,value
2023-02-14T05:45:24.061Z,33.90
2023-02-14T05:50:25.775Z,32.33
2023-02-14T05:55:27.413Z,33.17
2023-02-14T06:00:29.482Z,33.70
2023-02-14T06:05:31.114Z,32.47
2023-02-14T06:10:32.962Z,32.97
2023-02-14T06:15:38.224Z,32.93
2023-02-14T06:20:39.984Z,33.70
2023-02-14T06:25:41.704Z,35.23
2023-02-14T06:30:43.472Z,37.93
2023-02-14T06:35:45.234Z,38.40
2023-02-14T06:40:46.860Z,42.10
2023-02-14T06:45:48.571Z,35.13
2023-02-14T06:50:50.293Z,34.53
2023-02-14T06:55:51.998Z,34.93
2023-02-14T07:00:58.008Z,35.57
2023-02-14T07:06:00.053Z,36.50
2023-02-14T07:11:02.072Z,40.33
2023-02-14T07:16:04.191Z,39.77
2023-02-14T07:21:05.990Z,34.93
2023-02-14T07:26:07.657Z,34.63
2023-02-14T07:31:09.422Z,33.30
2023-02-14T07:36:11.539Z,36.53
2023-02-14T07:41:13.165Z,30.90
2023-02-14T07:46:14.948Z,30.30
2023-02-14T07:51:16.643Z,31.73
2023-02-14T07:56:18.364Z,30.47
2023-02-14T08:01:21.355Z,31.60
2023-02-14T08:06:23.058Z,31.20
2023-02-14T08:11:43.440Z,32.73
2023-02-14T08:16:45.110Z,32.73
2023-02-14T08:21:46.833Z,32.87
2023-02-14T08:26:48.451Z,33.27
2023-02-14T08:31:50.244Z,33.80
2023-02-14T08:36:52.148Z,34.80
2023-02-14T08:41:53.755Z,34.13
2023-02-14T08:46:55.595Z,34.70
2023-02-14T08:51:57.322Z,36.10
2023-02-14T08:56:59.009Z,32.40
2023-02-14T09:02:00.623Z,32.33
2023-02-14T09:07:04.617Z,32.70
2023-02-14T09:12:08.452Z,32.60
2023-02-14T09:17:13.888Z,30.83
2023-02-14T09:22:15.679Z,34.63
2023-02-14T09:27:17.335Z,33.53
2023-02-14T09:32:19.470Z,32.63
2023-02-14T09:37:21.216Z,33.60
2023-02-14T09:42:40.339Z,33.00
2023-02-14T09:47:55.502Z,33.10
2023-02-14T09:53:01.680Z,33.10
2023-02-14T09:58:23.266Z,33.80
2023-02-14T10:03:47.562Z,34.10
2023-02-14T10:09:02.553Z,32.83
2023-02-14T10:14:15.891Z,34.90
2023-02-14T10:19:21.172Z,34.03
2023-02-14T10:24:37.594Z,33.93
2023-02-14T10:29:41.651Z,37.73
2023-02-14T10:34:56.703Z,38.93
2023-02-14T10:40:40.606Z,34.30
2023-02-14T10:46:06.951Z,34.53
2023-02-14T10:51:15.514Z,34.67
2023-02-14T10:56:28.171Z,34.00
2023-02-14T11:01:30.365Z,33.83
2023-02-14T11:06:32.851Z,34.93
2023-02-14T11:11:46.727Z,35.13
2023-02-14T11:16:52.008Z,37.00
2023-02-14T11:21:56.640Z,32.07
2023-02-14T11:27:02.316Z,33.50
2023-02-14T11:32:14.615Z,34.30
2023-02-14T11:37:22.433Z,39.53
2023-02-14T11:42:35.780Z,37.07
2023-02-14T11:47:41.498Z,34.70
2023-02-14T11:52:51.942Z,34.47
2023-02-14T11:57:54.736Z,34.83
2023-02-14T12:02:59.239Z,34.73
2023-02-14T12:08:04.115Z,36.90
2023-02-14T12:13:09.034Z,35.40
2023-02-14T12:18:22.720Z,39.10
2023-02-14T12:23:36.900Z,46.00
2023-02-14T12:28:50.313Z,40.07
2023-02-14T12:33:51.994Z,38.90
2023-02-14T12:39:02.562Z,41.70
2023-02-14T12:44:07.642Z,37.57
2023-02-14T12:49:28.331Z,38.73
2023-02-14T12:54:37.208Z,43.87
2023-02-14T13:00:08.017Z,44.73
2023-02-14T13:05:28.363Z,41.27
2023-02-14T13:10:48.653Z,40.77
2023-02-14T13:16:27.829Z,42.67
2023-02-14T13:21:33.680Z,40.90
2023-02-14T13:26:40.054Z,36.60
2023-02-14T13:31:42.261Z,41.00
2023-02-14T13:36:45.518Z,40.63
2023-02-14T13:41:47.185Z,37.63
2023-02-14T13:46:52.043Z,38.17
2023-02-14T13:51:56.093Z,39.27
2023-02-14T13:56:59.849Z,38.30
2023-02-14T14:02:28.298Z,36.50
2023-02-14T14:07:31.686Z,35.13
2023-02-14T14:12:37.613Z,35.57
2023-02-14T14:17:46.043Z,37.27
2023-02-14T14:22:51.946Z,34.80
2023-02-14T14:27:53.734Z,36.77
2023-02-14T14:32:55.426Z,36.83
2023-02-14T14:37:59.036Z,42.90
2023-02-14T14:43:24.427Z,37.77
2023-02-14T14:48:39.554Z,38.40
2023-02-14T14:53:46.083Z,36.00
2023-02-14T14:58:48.073Z,35.43
2023-02-14T15:03:50.058Z,35.93
2023-02-14T15:08:52.103Z,37.83
2023-02-14T15:13:54.051Z,34.93
2023-02-14T15:19:07.433Z,40.83
2023-02-14T15:24:14.755Z,38.97
2023-02-14T15:29:26.774Z,38.77
2023-02-14T15:34:32.950Z,38.17
2023-02-14T15:39:42.572Z,38.63
2023-02-14T15:44:44.859Z,38.77
2023-02-14T15:49:46.759Z,38.13
2023-02-14T15:54:48.612Z,35.43
2023-02-14T15:59:50.658Z,37.37
2023-02-14T16:04:52.391Z,39.13
2023-02-14T16:10:24.855Z,36.23
2023-02-14T16:15:29.539Z,33.53
2023-02-14T16:20:37.308Z,34.17
2023-02-14T16:25:41.302Z,34.00
2023-02-14T16:30:45.569Z,33.93
2023-02-14T16:35:48.991Z,35.07
2023-02-14T16:40:53.171Z,32.50
2023-02-14T16:45:54.894Z,34.07
2023-02-14T16:50:57.447Z,36.40
2023-02-14T16:56:01.381Z,34.53
2023-02-14T17:01:03.655Z,34.57
2023-02-14T17:06:08.208Z,34.27
2023-02-14T17:11:10.492Z,35.67
2023-02-14T17:16:15.680Z,49.43
2023-02-14T17:21:21.393Z,47.50
2023-02-14T17:26:23.824Z,44.90
2023-02-14T17:31:25.758Z,44.90
2023-02-14T17:36:27.902Z,39.60
2023-02-14T17:41:29.664Z,39.93
2023-02-14T17:46:32.125Z,50.17
2023-02-14T17:51:33.871Z,50.37
2023-02-14T17:56:35.514Z,41.47
2023-02-14T18:01:37.201Z,46.53
2023-02-14T18:06:40.346Z,43.77
2023-02-14T18:11:44.433Z,47.27
2023-02-14T18:16:46.795Z,45.93
2023-02-14T18:21:48.528Z,46.10
2023-02-14T18:26:50.320Z,46.40
2023-02-14T18:31:52.237Z,52.20
2023-02-14T18:36:54.920Z,53.30
2023-02-14T18:41:59.985Z,56.17
2023-02-14T18:47:02.882Z,64.10
2023-02-14T18:52:05.129Z,72.27
2023-02-14T18:57:06.968Z,71.83
2023-02-14T19:02:09.401Z,74.10
2023-02-14T19:07:11.326Z,63.53
2023-02-14T19:12:13.923Z,67.33
2023-02-14T19:17:17.005Z,70.10
2023-02-14T19:22:19.028Z,68.67
2023-02-14T19:27:21.621Z,65.20
2023-02-14T19:32:23.529Z,63.53
2023-02-14T19:37:26.852Z,64.90
2023-02-14T19:42:28.525Z,57.50
2023-02-14T19:47:45.932Z,58.97
2023-02-14T19:52:48.574Z,61.53
2023-02-14T19:57:50.322Z,68.80
2023-02-14T20:02:52.238Z,68.50
2023-02-14T20:07:56.730Z,61.77
2023-02-14T20:12:58.529Z,70.37
2023-02-14T20:18:00.495Z,69.87
2023-02-14T20:23:02.100Z,71.37
2023-02-14T20:28:03.728Z,74.40
2023-02-14T20:33:06.041Z,80.27
2023-02-14T20:38:08.201Z,78.57
2023-02-14T20:43:09.842Z,75.07
2023-02-14T20:48:11.463Z,70.17
2023-02-14T20:53:13.207Z,84.10
2023-02-14T20:58:14.824Z,75.07
2023-02-14T21:03:16.496Z,66.33
2023-02-14T21:08:18.494Z,68.03
2023-02-14T21:13:20.463Z,71.57
2023-02-14T21:18:22.635Z,59.70
2023-02-14T21:23:24.257Z,57.07
